sensor_id;sensor_type;location;lat;lon;timestamp;P1;durP1;ratioP1;P2;durP2;ratioP2
15383;SDS011;7790;53.022;12.968;2023-05-07T00:02:18;1.90;;;1.80;;
15383;SDS011;7790;53.022;12.968;2023-05-07T00:06:19;2.07;;;1.90;;
15383;SDS011;7790;53.022;12.968;2023-05-07T00:10:20;2.77;;;1.93;;
15383;SDS011;7790;53.022;12.968;2023-05-07T00:14:21;2.03;;;1.93;;
15383;SDS011;7790;53.022;12.968;2023-05-07T00:18:21;2.00;;;1.90;;
15383;SDS011;7790;53.022;12.968;2023-05-07T00:22:22;1.73;;;1.63;;
15383;SDS011;7790;53.022;12.968;2023-05-07T00:26:23;2.00;;;1.90;;
15383;SDS011;7790;53.022;12.968;2023-05-07T00:30:25;2.87;;;2.20;;
15383;SDS011;7790;53.022;12.968;2023-05-07T00:34:26;1.80;;;1.70;;
15383;SDS011;7790;53.022;12.968;2023-05-07T00:38:27;2.00;;;1.90;;
15383;SDS011;7790;53.022;12.968;2023-05-07T00:42:28;2.50;;;1.77;;
15383;SDS011;7790;53.022;12.968;2023-05-07T00:46:29;2.10;;;2.00;;
15383;SDS011;7790;53.022;12.968;2023-05-07T00:50:31;2.10;;;2.00;;
15383;SDS011;7790;53.022;12.968;2023-05-07T00:54:33;2.13;;;1.70;;
15383;SDS011;7790;53.022;12.968;2023-05-07T00:58:36;1.90;;;1.80;;
15383;SDS011;7790;53.022;12.968;2023-05-07T01:02:38;1.90;;;1.80;;
15383;SDS011;7790;53.022;12.968;2023-05-07T01:06:39;2.00;;;1.80;;
15383;SDS011;7790;53.022;12.968;2023-05-07T01:10:41;1.83;;;1.73;;
15383;SDS011;7790;53.022;12.968;2023-05-07T01:14:43;2.07;;;1.97;;
15383;SDS011;7790;53.022;12.968;2023-05-07T01:18:44;2.87;;;2.20;;
15383;SDS011;7790;53.022;12.968;2023-05-07T01:22:48;1.80;;;1.70;;
15383;SDS011;7790;53.022;12.968;2023-05-07T01:26:50;2.00;;;1.90;;
15383;SDS011;7790;53.022;12.968;2023-05-07T01:30:53;1.70;;;1.60;;
15383;SDS011;7790;53.022;12.968;2023-05-07T01:35:00;2.10;;;1.90;;
15383;SDS011;7790;53.022;12.968;2023-05-07T01:39:03;2.40;;;2.13;;
15383;SDS011;7790;53.022;12.968;2023-05-07T01:43:05;1.90;;;1.80;;
15383;SDS011;7790;53.022;12.968;2023-05-07T01:47:09;2.90;;;1.90;;
15383;SDS011;7790;53.022;12.968;2023-05-07T01:51:10;1.70;;;1.60;;
15383;SDS011;7790;53.022;12.968;2023-05-07T01:55:12;1.87;;;1.73;;
15383;SDS011;7790;53.022;12.968;2023-05-07T01:59:14;1.90;;;1.80;;
15383;SDS011;7790;53.022;12.968;2023-05-07T02:03:14;2.30;;;1.67;;
15383;SDS011;7790;53.022;12.968;2023-05-07T02:07:23;1.80;;;1.70;;
15383;SDS011;7790;53.022;12.968;2023-05-07T02:11:25;1.80;;;1.70;;
15383;SDS011;7790;53.022;12.968;2023-05-07T02:15:26;1.70;;;1.60;;
15383;SDS011;7790;53.022;12.968;2023-05-07T02:19:27;1.73;;;1.63;;
15383;SDS011;7790;53.022;12.968;2023-05-07T02:23:28;1.83;;;1.73;;
15383;SDS011;7790;53.022;12.968;2023-05-07T02:27:29;2.00;;;1.80;;
15383;SDS011;7790;53.022;12.968;2023-05-07T02:31:30;1.77;;;1.67;;
15383;SDS011;7790;53.022;12.968;2023-05-07T02:35:30;1.97;;;1.87;;
15383;SDS011;7790;53.022;12.968;2023-05-07T02:39:32;1.97;;;1.87;;
15383;SDS011;7790;53.022;12.968;2023-05-07T02:43:33;1.90;;;1.80;;
15383;SDS011;7790;53.022;12.968;2023-05-07T02:47:34;1.90;;;1.80;;
15383;SDS011;7790;53.022;12.968;2023-05-07T02:51:36;2.00;;;1.73;;
15383;SDS011;7790;53.022;12.968;2023-05-07T02:55:42;2.00;;;1.80;;
15383;SDS011;7790;53.022;12.968;2023-05-07T02:59:44;1.60;;;1.50;;
15383;SDS011;7790;53.022;12.968;2023-05-07T03:03:46;1.80;;;1.70;;
15383;SDS011;7790;53.022;12.968;2023-05-07T03:07:47;2.77;;;1.80;;
15383;SDS011;7790;53.022;12.968;2023-05-07T03:11:49;1.87;;;1.77;;
15383;SDS011;7790;53.022;12.968;2023-05-07T03:15:50;2.00;;;1.87;;
15383;SDS011;7790;53.022;12.968;2023-05-07T03:19:51;1.87;;;1.77;;
15383;SDS011;7790;53.022;12.968;2023-05-07T03:23:52;1.90;;;1.80;;
15383;SDS011;7790;53.022;12.968;2023-05-07T03:27:53;1.70;;;1.60;;
15383;SDS011;7790;53.022;12.968;2023-05-07T03:31:58;2.27;;;1.97;;
15383;SDS011;7790;53.022;12.968;2023-05-07T03:35:59;1.70;;;1.60;;
15383;SDS011;7790;53.022;12.968;2023-05-07T03:40:01;1.90;;;1.80;;
15383;SDS011;7790;53.022;12.968;2023-05-07T03:44:06;1.60;;;1.50;;
15383;SDS011;7790;53.022;12.968;2023-05-07T03:48:08;2.00;;;1.90;;
15383;SDS011;7790;53.022;12.968;2023-05-07T03:52:09;2.00;;;1.90;;
15383;SDS011;7790;53.022;12.968;2023-05-07T03:56:10;2.83;;;1.87;;
15383;SDS011;7790;53.022;12.968;2023-05-07T04:00:13;2.07;;;1.87;;
15383;SDS011;7790;53.022;12.968;2023-05-07T04:04:20;2.00;;;1.90;;
15383;SDS011;7790;53.022;12.968;2023-05-07T04:08:22;2.00;;;1.80;;
15383;SDS011;7790;53.022;12.968;2023-05-07T04:12:27;1.97;;;1.80;;
15383;SDS011;7790;53.022;12.968;2023-05-07T04:16:28;1.80;;;1.70;;
15383;SDS011;7790;53.022;12.968;2023-05-07T04:20:29;1.80;;;1.70;;
15383;SDS011;7790;53.022;12.968;2023-05-07T04:24:37;1.93;;;1.83;;
15383;SDS011;7790;53.022;12.968;2023-05-07T04:28:38;2.07;;;1.97;;
15383;SDS011;7790;53.022;12.968;2023-05-07T04:32:40;1.90;;;1.80;;
15383;SDS011;7790;53.022;12.968;2023-05-07T04:36:41;1.93;;;1.73;;
15383;SDS011;7790;53.022;12.968;2023-05-07T04:40:45;1.80;;;1.70;;
15383;SDS011;7790;53.022;12.968;2023-05-07T04:44:52;1.70;;;1.60;;
15383;SDS011;7790;53.022;12.968;2023-05-07T04:48:54;2.17;;;1.80;;
15383;SDS011;7790;53.022;12.968;2023-05-07T04:52:55;2.00;;;1.90;;
15383;SDS011;7790;53.022;12.968;2023-05-07T04:56:57;2.10;;;1.90;;
15383;SDS011;7790;53.022;12.968;2023-05-07T05:00:58;1.60;;;1.50;;
15383;SDS011;7790;53.022;12.968;2023-05-07T05:05:00;1.90;;;1.80;;
15383;SDS011;7790;53.022;12.968;2023-05-07T05:09:02;2.17;;;1.97;;
15383;SDS011;7790;53.022;12.968;2023-05-07T05:13:06;1.83;;;1.63;;
15383;SDS011;7790;53.022;12.968;2023-05-07T05:17:08;1.80;;;1.70;;
15383;SDS011;7790;53.022;12.968;2023-05-07T05:21:11;1.70;;;1.60;;
15383;SDS011;7790;53.022;12.968;2023-05-07T05:25:12;1.70;;;1.60;;
15383;SDS011;7790;53.022;12.968;2023-05-07T05:29:13;1.90;;;1.80;;
15383;SDS011;7790;53.022;12.968;2023-05-07T05:33:17;1.70;;;1.57;;
15383;SDS011;7790;53.022;12.968;2023-05-07T05:37:18;1.70;;;1.60;;
15383;SDS011;7790;53.022;12.968;2023-05-07T05:41:19;1.67;;;1.57;;
15383;SDS011;7790;53.022;12.968;2023-05-07T05:45:21;3.20;;;2.17;;
15383;SDS011;7790;53.022;12.968;2023-05-07T05:49:22;2.00;;;1.87;;
15383;SDS011;7790;53.022;12.968;2023-05-07T05:53:23;4.30;;;1.70;;
15383;SDS011;7790;53.022;12.968;2023-05-07T05:57:24;1.67;;;1.57;;
15383;SDS011;7790;53.022;12.968;2023-05-07T06:01:25;2.13;;;1.90;;
15383;SDS011;7790;53.022;12.968;2023-05-07T06:05:28;1.60;;;1.50;;
15383;SDS011;7790;53.022;12.968;2023-05-07T06:09:31;1.73;;;1.63;;
15383;SDS011;7790;53.022;12.968;2023-05-07T06:13:32;1.63;;;1.53;;
15383;SDS011;7790;53.022;12.968;2023-05-07T06:17:33;1.83;;;1.57;;
15383;SDS011;7790;53.022;12.968;2023-05-07T06:21:34;2.10;;;1.67;;
15383;SDS011;7790;53.022;12.968;2023-05-07T06:25:35;1.67;;;1.57;;
15383;SDS011;7790;53.022;12.968;2023-05-07T06:29:36;1.73;;;1.63;;
15383;SDS011;7790;53.022;12.968;2023-05-07T06:33:46;1.50;;;1.40;;
15383;SDS011;7790;53.022;12.968;2023-05-07T06:37:51;1.53;;;1.30;;
15383;SDS011;7790;53.022;12.968;2023-05-07T06:41:57;1.33;;;1.30;;
15383;SDS011;7790;53.022;12.968;2023-05-07T06:46:03;1.47;;;1.37;;
15383;SDS011;7790;53.022;12.968;2023-05-07T06:50:04;1.83;;;1.40;;
15383;SDS011;7790;53.022;12.968;2023-05-07T06:54:07;1.50;;;1.40;;
15383;SDS011;7790;53.022;12.968;2023-05-07T06:58:10;1.50;;;1.20;;
15383;SDS011;7790;53.022;12.968;2023-05-07T07:02:12;1.63;;;1.40;;
15383;SDS011;7790;53.022;12.968;2023-05-07T07:06:14;1.20;;;1.20;;
15383;SDS011;7790;53.022;12.968;2023-05-07T07:10:16;1.63;;;1.53;;
15383;SDS011;7790;53.022;12.968;2023-05-07T07:14:17;1.20;;;1.20;;
15383;SDS011;7790;53.022;12.968;2023-05-07T07:18:23;1.30;;;1.20;;
15383;SDS011;7790;53.022;12.968;2023-05-07T07:22:24;2.00;;;1.13;;
15383;SDS011;7790;53.022;12.968;2023-05-07T07:26:25;2.13;;;1.40;;
15383;SDS011;7790;53.022;12.968;2023-05-07T07:30:27;1.33;;;1.27;;
15383;SDS011;7790;53.022;12.968;2023-05-07T07:34:28;3.07;;;1.40;;
15383;SDS011;7790;53.022;12.968;2023-05-07T07:38:29;1.83;;;1.30;;
15383;SDS011;7790;53.022;12.968;2023-05-07T07:42:31;1.40;;;1.30;;
15383;SDS011;7790;53.022;12.968;2023-05-07T07:46:32;1.43;;;1.33;;
15383;SDS011;7790;53.022;12.968;2023-05-07T07:50:34;1.70;;;1.60;;
15383;SDS011;7790;53.022;12.968;2023-05-07T07:54:35;3.80;;;2.20;;
15383;SDS011;7790;53.022;12.968;2023-05-07T07:58:37;6.13;;;2.23;;
15383;SDS011;7790;53.022;12.968;2023-05-07T08:02:39;4.20;;;1.60;;
15383;SDS011;7790;53.022;12.968;2023-05-07T08:06:40;3.40;;;1.60;;
15383;SDS011;7790;53.022;12.968;2023-05-07T08:10:43;4.57;;;1.80;;
15383;SDS011;7790;53.022;12.968;2023-05-07T08:14:52;1.90;;;1.80;;
15383;SDS011;7790;53.022;12.968;2023-05-07T08:18:53;3.50;;;2.07;;
15383;SDS011;7790;53.022;12.968;2023-05-07T08:22:54;4.57;;;1.80;;
15383;SDS011;7790;53.022;12.968;2023-05-07T08:26:56;2.17;;;1.67;;
15383;SDS011;7790;53.022;12.968;2023-05-07T08:30:57;6.20;;;2.00;;
15383;SDS011;7790;53.022;12.968;2023-05-07T08:35:02;2.20;;;2.00;;
15383;SDS011;7790;53.022;12.968;2023-05-07T08:39:03;2.43;;;1.87;;
15383;SDS011;7790;53.022;12.968;2023-05-07T08:43:05;3.53;;;2.60;;
15383;SDS011;7790;53.022;12.968;2023-05-07T08:47:07;4.73;;;2.87;;
15383;SDS011;7790;53.022;12.968;2023-05-07T08:51:14;3.90;;;2.10;;
15383;SDS011;7790;53.022;12.968;2023-05-07T08:55:17;3.17;;;2.00;;
15383;SDS011;7790;53.022;12.968;2023-05-07T08:59:19;3.07;;;2.10;;
15383;SDS011;7790;53.022;12.968;2023-05-07T09:03:21;3.97;;;1.90;;
15383;SDS011;7790;53.022;12.968;2023-05-07T09:07:25;3.00;;;1.87;;
15383;SDS011;7790;53.022;12.968;2023-05-07T09:11:27;2.17;;;1.90;;
15383;SDS011;7790;53.022;12.968;2023-05-07T09:15:31;3.47;;;1.97;;
15383;SDS011;7790;53.022;12.968;2023-05-07T09:19:33;2.03;;;1.80;;
15383;SDS011;7790;53.022;12.968;2023-05-07T09:23:37;1.97;;;1.80;;
15383;SDS011;7790;53.022;12.968;2023-05-07T09:27:41;2.43;;;1.70;;
15383;SDS011;7790;53.022;12.968;2023-05-07T09:31:42;4.43;;;1.80;;
15383;SDS011;7790;53.022;12.968;2023-05-07T09:35:50;1.80;;;1.47;;
15383;SDS011;7790;53.022;12.968;2023-05-07T09:39:52;1.90;;;1.70;;
15383;SDS011;7790;53.022;12.968;2023-05-07T09:43:57;2.40;;;1.50;;
15383;SDS011;7790;53.022;12.968;2023-05-07T09:48:04;3.70;;;1.77;;
15383;SDS011;7790;53.022;12.968;2023-05-07T09:52:08;1.80;;;1.70;;
15383;SDS011;7790;53.022;12.968;2023-05-07T09:56:14;1.90;;;1.43;;
15383;SDS011;7790;53.022;12.968;2023-05-07T10:00:17;2.03;;;1.80;;
15383;SDS011;7790;53.022;12.968;2023-05-07T10:04:22;1.50;;;1.40;;
15383;SDS011;7790;53.022;12.968;2023-05-07T10:08:25;2.93;;;2.00;;
15383;SDS011;7790;53.022;12.968;2023-05-07T10:12:30;3.33;;;1.60;;
15383;SDS011;7790;53.022;12.968;2023-05-07T10:16:38;2.43;;;1.40;;
15383;SDS011;7790;53.022;12.968;2023-05-07T10:20:45;3.00;;;1.90;;
15383;SDS011;7790;53.022;12.968;2023-05-07T10:24:48;4.10;;;2.10;;
15383;SDS011;7790;53.022;12.968;2023-05-07T10:28:58;36.13;;;3.80;;
15383;SDS011;7790;53.022;12.968;2023-05-07T10:33:05;7.93;;;2.30;;
15383;SDS011;7790;53.022;12.968;2023-05-07T10:37:12;2.73;;;1.60;;
15383;SDS011;7790;53.022;12.968;2023-05-07T10:41:14;8.97;;;2.00;;
15383;SDS011;7790;53.022;12.968;2023-05-07T10:45:17;5.13;;;1.60;;
15383;SDS011;7790;53.022;12.968;2023-05-07T10:49:22;2.70;;;1.90;;
15383;SDS011;7790;53.022;12.968;2023-05-07T10:53:30;3.87;;;1.93;;
15383;SDS011;7790;53.022;12.968;2023-05-07T10:57:37;1.87;;;1.63;;
15383;SDS011;7790;53.022;12.968;2023-05-07T11:01:52;2.00;;;1.80;;
15383;SDS011;7790;53.022;12.968;2023-05-07T11:06:14;3.33;;;1.50;;
15383;SDS011;7790;53.022;12.968;2023-05-07T11:10:23;1.60;;;1.50;;
15383;SDS011;7790;53.022;12.968;2023-05-07T11:14:52;2.20;;;1.83;;
15383;SDS011;7790;53.022;12.968;2023-05-07T11:19:08;2.53;;;1.60;;
15383;SDS011;7790;53.022;12.968;2023-05-07T11:27:41;4.60;;;1.60;;
15383;SDS011;7790;53.022;12.968;2023-05-07T11:31:42;1.80;;;1.53;;
15383;SDS011;7790;53.022;12.968;2023-05-07T11:35:44;3.87;;;1.73;;
15383;SDS011;7790;53.022;12.968;2023-05-07T11:39:47;2.10;;;1.77;;
15383;SDS011;7790;53.022;12.968;2023-05-07T11:43:55;5.27;;;1.60;;
15383;SDS011;7790;53.022;12.968;2023-05-07T11:47:57;2.63;;;1.70;;
15383;SDS011;7790;53.022;12.968;2023-05-07T11:51:58;2.47;;;1.70;;
15383;SDS011;7790;53.022;12.968;2023-05-07T11:55:59;4.60;;;1.80;;
15383;SDS011;7790;53.022;12.968;2023-05-07T12:00:00;3.03;;;1.90;;
15383;SDS011;7790;53.022;12.968;2023-05-07T12:04:12;2.30;;;1.67;;
15383;SDS011;7790;53.022;12.968;2023-05-07T12:08:14;2.63;;;1.70;;
15383;SDS011;7790;53.022;12.968;2023-05-07T12:12:16;3.47;;;1.87;;
15383;SDS011;7790;53.022;12.968;2023-05-07T12:16:17;1.50;;;1.40;;
15383;SDS011;7790;53.022;12.968;2023-05-07T12:20:19;2.97;;;1.73;;
15383;SDS011;7790;53.022;12.968;2023-05-07T12:24:21;3.43;;;1.93;;
15383;SDS011;7790;53.022;12.968;2023-05-07T12:28:22;2.53;;;1.70;;
15383;SDS011;7790;53.022;12.968;2023-05-07T12:32:22;2.83;;;1.90;;
15383;SDS011;7790;53.022;12.968;2023-05-07T12:36:23;1.27;;;1.20;;
15383;SDS011;7790;53.022;12.968;2023-05-07T12:40:35;2.67;;;1.60;;
15383;SDS011;7790;53.022;12.968;2023-05-07T12:44:37;2.27;;;1.80;;
15383;SDS011;7790;53.022;12.968;2023-05-07T12:48:38;2.17;;;1.80;;
15383;SDS011;7790;53.022;12.968;2023-05-07T12:52:45;3.27;;;2.00;;
15383;SDS011;7790;53.022;12.968;2023-05-07T12:56:47;1.90;;;1.77;;
15383;SDS011;7790;53.022;12.968;2023-05-07T13:00:48;1.70;;;1.60;;
15383;SDS011;7790;53.022;12.968;2023-05-07T13:04:50;2.43;;;1.80;;
15383;SDS011;7790;53.022;12.968;2023-05-07T13:08:51;6.27;;;3.27;;
15383;SDS011;7790;53.022;12.968;2023-05-07T13:12:52;10.50;;;5.43;;
15383;SDS011;7790;53.022;12.968;2023-05-07T13:16:53;11.57;;;4.87;;
15383;SDS011;7790;53.022;12.968;2023-05-07T13:20:54;5.37;;;3.30;;
15383;SDS011;7790;53.022;12.968;2023-05-07T13:24:55;5.20;;;2.40;;
15383;SDS011;7790;53.022;12.968;2023-05-07T13:28:55;4.17;;;2.40;;
15383;SDS011;7790;53.022;12.968;2023-05-07T13:32:57;6.23;;;3.83;;
15383;SDS011;7790;53.022;12.968;2023-05-07T13:36:57;5.93;;;3.60;;
15383;SDS011;7790;53.022;12.968;2023-05-07T13:40:58;4.03;;;2.70;;
15383;SDS011;7790;53.022;12.968;2023-05-07T13:44:59;5.70;;;3.03;;
15383;SDS011;7790;53.022;12.968;2023-05-07T13:49:00;5.10;;;2.93;;
15383;SDS011;7790;53.022;12.968;2023-05-07T13:53:01;6.83;;;2.90;;
15383;SDS011;7790;53.022;12.968;2023-05-07T13:57:02;4.40;;;3.27;;
15383;SDS011;7790;53.022;12.968;2023-05-07T14:01:03;4.03;;;2.80;;
15383;SDS011;7790;53.022;12.968;2023-05-07T14:05:04;3.57;;;2.37;;
15383;SDS011;7790;53.022;12.968;2023-05-07T14:09:05;3.00;;;2.57;;
15383;SDS011;7790;53.022;12.968;2023-05-07T14:13:06;4.60;;;2.67;;
15383;SDS011;7790;53.022;12.968;2023-05-07T14:17:07;3.13;;;2.30;;
15383;SDS011;7790;53.022;12.968;2023-05-07T14:21:08;2.77;;;2.43;;
15383;SDS011;7790;53.022;12.968;2023-05-07T14:25:10;4.33;;;2.40;;
15383;SDS011;7790;53.022;12.968;2023-05-07T14:29:11;2.37;;;2.17;;
15383;SDS011;7790;53.022;12.968;2023-05-07T14:33:12;2.53;;;2.00;;
15383;SDS011;7790;53.022;12.968;2023-05-07T14:37:13;3.43;;;1.87;;
15383;SDS011;7790;53.022;12.968;2023-05-07T14:41:13;2.30;;;2.10;;
15383;SDS011;7790;53.022;12.968;2023-05-07T14:45:16;2.17;;;1.90;;
15383;SDS011;7790;53.022;12.968;2023-05-07T14:49:17;2.07;;;1.87;;
15383;SDS011;7790;53.022;12.968;2023-05-07T14:53:18;4.10;;;1.97;;
15383;SDS011;7790;53.022;12.968;2023-05-07T14:57:19;2.50;;;1.93;;
15383;SDS011;7790;53.022;12.968;2023-05-07T15:01:20;3.20;;;2.00;;
15383;SDS011;7790;53.022;12.968;2023-05-07T15:05:21;4.77;;;1.90;;
15383;SDS011;7790;53.022;12.968;2023-05-07T15:09:22;3.57;;;2.00;;
15383;SDS011;7790;53.022;12.968;2023-05-07T15:13:23;2.80;;;1.87;;
15383;SDS011;7790;53.022;12.968;2023-05-07T15:17:24;2.57;;;1.83;;
15383;SDS011;7790;53.022;12.968;2023-05-07T15:21:25;2.57;;;1.93;;
15383;SDS011;7790;53.022;12.968;2023-05-07T15:25:27;2.67;;;2.10;;
15383;SDS011;7790;53.022;12.968;2023-05-07T15:29:28;2.47;;;2.07;;
15383;SDS011;7790;53.022;12.968;2023-05-07T15:33:30;2.13;;;2.03;;
15383;SDS011;7790;53.022;12.968;2023-05-07T15:37:31;2.77;;;1.80;;
15383;SDS011;7790;53.022;12.968;2023-05-07T15:41:32;5.03;;;2.00;;
15383;SDS011;7790;53.022;12.968;2023-05-07T15:45:36;1.70;;;1.60;;
15383;SDS011;7790;53.022;12.968;2023-05-07T15:49:42;2.93;;;1.73;;
15383;SDS011;7790;53.022;12.968;2023-05-07T15:53:43;1.80;;;1.70;;
15383;SDS011;7790;53.022;12.968;2023-05-07T15:57:44;1.70;;;1.60;;
15383;SDS011;7790;53.022;12.968;2023-05-07T16:01:45;4.53;;;1.97;;
15383;SDS011;7790;53.022;12.968;2023-05-07T16:05:46;3.77;;;1.67;;
15383;SDS011;7790;53.022;12.968;2023-05-07T16:09:47;2.27;;;1.97;;
15383;SDS011;7790;53.022;12.968;2023-05-07T16:13:47;2.57;;;1.50;;
15383;SDS011;7790;53.022;12.968;2023-05-07T16:17:48;3.50;;;1.70;;
15383;SDS011;7790;53.022;12.968;2023-05-07T16:21:50;1.83;;;1.60;;
15383;SDS011;7790;53.022;12.968;2023-05-07T16:25:52;1.80;;;1.70;;
15383;SDS011;7790;53.022;12.968;2023-05-07T16:29:53;1.20;;;1.20;;
15383;SDS011;7790;53.022;12.968;2023-05-07T16:33:54;2.20;;;1.67;;
15383;SDS011;7790;53.022;12.968;2023-05-07T16:37:54;1.70;;;1.60;;
15383;SDS011;7790;53.022;12.968;2023-05-07T16:41:55;1.20;;;1.10;;
15383;SDS011;7790;53.022;12.968;2023-05-07T16:45:56;1.37;;;1.27;;
15383;SDS011;7790;53.022;12.968;2023-05-07T16:49:57;2.07;;;1.40;;
15383;SDS011;7790;53.022;12.968;2023-05-07T16:53:59;2.40;;;1.47;;
15383;SDS011;7790;53.022;12.968;2023-05-07T16:58:00;3.73;;;1.50;;
15383;SDS011;7790;53.022;12.968;2023-05-07T17:02:01;4.03;;;1.50;;
15383;SDS011;7790;53.022;12.968;2023-05-07T17:06:02;3.10;;;1.57;;
15383;SDS011;7790;53.022;12.968;2023-05-07T17:10:03;3.00;;;1.13;;
15383;SDS011;7790;53.022;12.968;2023-05-07T17:14:04;3.07;;;1.60;;
15383;SDS011;7790;53.022;12.968;2023-05-07T17:18:06;1.60;;;1.23;;
15383;SDS011;7790;53.022;12.968;2023-05-07T17:22:07;1.50;;;1.40;;
15383;SDS011;7790;53.022;12.968;2023-05-07T17:26:14;3.40;;;1.33;;
15383;SDS011;7790;53.022;12.968;2023-05-07T17:30:16;1.57;;;1.47;;
15383;SDS011;7790;53.022;12.968;2023-05-07T17:34:17;2.10;;;1.57;;
15383;SDS011;7790;53.022;12.968;2023-05-07T17:38:18;2.47;;;1.20;;
15383;SDS011;7790;53.022;12.968;2023-05-07T17:42:18;7.87;;;1.77;;
15383;SDS011;7790;53.022;12.968;2023-05-07T17:46:19;5.57;;;1.60;;
15383;SDS011;7790;53.022;12.968;2023-05-07T17:50:20;4.53;;;1.30;;
15383;SDS011;7790;53.022;12.968;2023-05-07T17:54:21;5.07;;;1.60;;
15383;SDS011;7790;53.022;12.968;2023-05-07T17:58:25;5.80;;;1.90;;
15383;SDS011;7790;53.022;12.968;2023-05-07T18:02:26;5.47;;;1.40;;
15383;SDS011;7790;53.022;12.968;2023-05-07T18:06:27;3.83;;;1.50;;
15383;SDS011;7790;53.022;12.968;2023-05-07T18:10:28;3.17;;;1.50;;
15383;SDS011;7790;53.022;12.968;2023-05-07T18:14:29;4.88;;;1.30;;
15383;SDS011;7790;53.022;12.968;2023-05-07T18:18:30;5.87;;;1.60;;
15383;SDS011;7790;53.022;12.968;2023-05-07T18:22:31;5.03;;;1.37;;
15383;SDS011;7790;53.022;12.968;2023-05-07T18:26:32;1.87;;;1.23;;
15383;SDS011;7790;53.022;12.968;2023-05-07T18:30:33;2.77;;;1.47;;
15383;SDS011;7790;53.022;12.968;2023-05-07T18:34:34;2.33;;;1.20;;
15383;SDS011;7790;53.022;12.968;2023-05-07T18:38:34;2.13;;;1.53;;
15383;SDS011;7790;53.022;12.968;2023-05-07T18:42:35;2.77;;;1.40;;
15383;SDS011;7790;53.022;12.968;2023-05-07T18:46:36;1.37;;;1.27;;
15383;SDS011;7790;53.022;12.968;2023-05-07T18:50:40;2.30;;;1.20;;
15383;SDS011;7790;53.022;12.968;2023-05-07T18:54:44;2.23;;;1.30;;
15383;SDS011;7790;53.022;12.968;2023-05-07T18:58:45;1.20;;;1.10;;
15383;SDS011;7790;53.022;12.968;2023-05-07T19:02:46;1.87;;;1.20;;
15383;SDS011;7790;53.022;12.968;2023-05-07T19:06:46;1.30;;;1.20;;
15383;SDS011;7790;53.022;12.968;2023-05-07T19:10:47;2.20;;;1.10;;
15383;SDS011;7790;53.022;12.968;2023-05-07T19:14:48;1.90;;;1.10;;
15383;SDS011;7790;53.022;12.968;2023-05-07T19:18:50;1.27;;;1.17;;
15383;SDS011;7790;53.022;12.968;2023-05-07T19:22:51;1.87;;;1.30;;
15383;SDS011;7790;53.022;12.968;2023-05-07T19:26:52;1.77;;;1.13;;
15383;SDS011;7790;53.022;12.968;2023-05-07T19:30:53;2.60;;;1.10;;
15383;SDS011;7790;53.022;12.968;2023-05-07T19:34:54;1.30;;;1.20;;
15383;SDS011;7790;53.022;12.968;2023-05-07T19:38:55;1.20;;;1.07;;
15383;SDS011;7790;53.022;12.968;2023-05-07T19:42:56;1.30;;;1.20;;
15383;SDS011;7790;53.022;12.968;2023-05-07T19:46:57;2.00;;;1.30;;
15383;SDS011;7790;53.022;12.968;2023-05-07T19:50:58;1.73;;;1.10;;
15383;SDS011;7790;53.022;12.968;2023-05-07T19:54:59;1.37;;;1.10;;
15383;SDS011;7790;53.022;12.968;2023-05-07T19:59:00;2.87;;;1.03;;
15383;SDS011;7790;53.022;12.968;2023-05-07T20:03:01;1.10;;;1.00;;
15383;SDS011;7790;53.022;12.968;2023-05-07T20:07:02;1.30;;;1.20;;
15383;SDS011;7790;53.022;12.968;2023-05-07T20:11:05;1.27;;;1.17;;
15383;SDS011;7790;53.022;12.968;2023-05-07T20:15:06;1.17;;;1.10;;
15383;SDS011;7790;53.022;12.968;2023-05-07T20:19:07;1.00;;;1.00;;
15383;SDS011;7790;53.022;12.968;2023-05-07T20:23:08;1.50;;;1.07;;
15383;SDS011;7790;53.022;12.968;2023-05-07T20:27:09;1.97;;;1.20;;
15383;SDS011;7790;53.022;12.968;2023-05-07T20:31:10;1.20;;;1.10;;
15383;SDS011;7790;53.022;12.968;2023-05-07T20:35:11;1.27;;;1.17;;
15383;SDS011;7790;53.022;12.968;2023-05-07T20:39:12;1.03;;;1.00;;
15383;SDS011;7790;53.022;12.968;2023-05-07T20:43:15;1.23;;;1.10;;
15383;SDS011;7790;53.022;12.968;2023-05-07T20:47:16;1.27;;;1.20;;
15383;SDS011;7790;53.022;12.968;2023-05-07T20:51:17;2.17;;;1.13;;
15383;SDS011;7790;53.022;12.968;2023-05-07T20:55:18;1.40;;;1.30;;
15383;SDS011;7790;53.022;12.968;2023-05-07T20:59:18;1.30;;;1.20;;
15383;SDS011;7790;53.022;12.968;2023-05-07T21:03:20;1.17;;;0.97;;
15383;SDS011;7790;53.022;12.968;2023-05-07T21:07:21;1.20;;;1.10;;
15383;SDS011;7790;53.022;12.968;2023-05-07T21:11:22;1.07;;;0.90;;
15383;SDS011;7790;53.022;12.968;2023-05-07T21:15:23;1.10;;;1.00;;
15383;SDS011;7790;53.022;12.968;2023-05-07T21:19:24;2.03;;;0.93;;
15383;SDS011;7790;53.022;12.968;2023-05-07T21:23:25;1.10;;;1.10;;
15383;SDS011;7790;53.022;12.968;2023-05-07T21:27:29;0.97;;;0.97;;
15383;SDS011;7790;53.022;12.968;2023-05-07T21:31:30;1.03;;;1.03;;
15383;SDS011;7790;53.022;12.968;2023-05-07T21:35:31;0.80;;;0.80;;
15383;SDS011;7790;53.022;12.968;2023-05-07T21:39:31;1.37;;;1.27;;
15383;SDS011;7790;53.022;12.968;2023-05-07T21:43:32;1.20;;;1.10;;
15383;SDS011;7790;53.022;12.968;2023-05-07T21:47:33;1.03;;;1.03;;
15383;SDS011;7790;53.022;12.968;2023-05-07T21:51:34;1.50;;;1.30;;
15383;SDS011;7790;53.022;12.968;2023-05-07T21:55:35;1.27;;;1.17;;
15383;SDS011;7790;53.022;12.968;2023-05-07T21:59:35;0.93;;;0.93;;
15383;SDS011;7790;53.022;12.968;2023-05-07T22:03:37;1.00;;;1.00;;
15383;SDS011;7790;53.022;12.968;2023-05-07T22:07:39;1.20;;;1.10;;
15383;SDS011;7790;53.022;12.968;2023-05-07T22:11:40;1.27;;;1.17;;
15383;SDS011;7790;53.022;12.968;2023-05-07T22:15:41;1.20;;;1.07;;
15383;SDS011;7790;53.022;12.968;2023-05-07T22:19:42;1.20;;;1.10;;
15383;SDS011;7790;53.022;12.968;2023-05-07T22:23:43;1.20;;;1.10;;
15383;SDS011;7790;53.022;12.968;2023-05-07T22:27:43;2.07;;;1.30;;
15383;SDS011;7790;53.022;12.968;2023-05-07T22:31:44;2.10;;;1.17;;
15383;SDS011;7790;53.022;12.968;2023-05-07T22:35:45;1.30;;;1.20;;
15383;SDS011;7790;53.022;12.968;2023-05-07T22:39:46;1.00;;;1.00;;
15383;SDS011;7790;53.022;12.968;2023-05-07T22:43:47;1.00;;;1.00;;
15383;SDS011;7790;53.022;12.968;2023-05-07T22:47:48;1.00;;;1.00;;
15383;SDS011;7790;53.022;12.968;2023-05-07T22:51:48;1.00;;;1.00;;
15383;SDS011;7790;53.022;12.968;2023-05-07T22:55:49;1.00;;;1.00;;
15383;SDS011;7790;53.022;12.968;2023-05-07T22:59:54;1.40;;;1.10;;
15383;SDS011;7790;53.022;12.968;2023-05-07T23:03:55;1.20;;;1.10;;
15383;SDS011;7790;53.022;12.968;2023-05-07T23:07:56;1.60;;;1.23;;
15383;SDS011;7790;53.022;12.968;2023-05-07T23:11:57;1.07;;;0.90;;
15383;SDS011;7790;53.022;12.968;2023-05-07T23:15:58;1.00;;;1.00;;
15383;SDS011;7790;53.022;12.968;2023-05-07T23:19:59;1.60;;;1.20;;
15383;SDS011;7790;53.022;12.968;2023-05-07T23:24:00;2.27;;;1.17;;
15383;SDS011;7790;53.022;12.968;2023-05-07T23:28:00;0.93;;;0.93;;
15383;SDS011;7790;53.022;12.968;2023-05-07T23:32:02;0.90;;;0.90;;
15383;SDS011;7790;53.022;12.968;2023-05-07T23:36:03;0.90;;;0.90;;
15383;SDS011;7790;53.022;12.968;2023-05-07T23:40:08;1.40;;;1.20;;
15383;SDS011;7790;53.022;12.968;2023-05-07T23:44:09;1.00;;;1.00;;
15383;SDS011;7790;53.022;12.968;2023-05-07T23:48:10;0.90;;;0.90;;
15383;SDS011;7790;53.022;12.968;2023-05-07T23:52:11;2.67;;;1.03;;
15383;SDS011;7790;53.022;12.968;2023-05-07T23:56:12;0.80;;;0.80;;
